Time;durP1;ratioP1;P1;durP2;ratioP2;P2;SDS_P1;SDS_P2;PMS_P1;PMS_P2;Temp;Humidity;BMP_temperature;BMP_pressure;BME280_temperature;BME280_humidity;BME280_pressure;Samples;Min_cycle;Max_cycle;Signal;HPM_P1;HPM_P2
2022/07/25 00:00:11;;;;;;;;;;;23.10;99.90;;;;;;5037820;28;20037;-72
2022/07/25 00:02:37;;;;;;;3.72;1.50;;;23.20;99.90;;;;;;5033257;28;20262;-73
2022/07/25 00:05:03;;;;;;;;;;;23.20;99.90;;;;;;5037651;28;20332;-72
2022/07/25 00:07:28;;;;;;;2.58;1.50;;;23.10;99.90;;;;;;5044164;28;20369;-72
2022/07/25 00:09:54;;;;;;;;;;;23.10;99.90;;;;;;5039156;28;20052;-72
2022/07/25 00:12:20;;;;;;;2.88;1.40;;;23.10;99.90;;;;;;5016973;28;20472;-72
2022/07/25 00:14:47;;;;;;;2.80;1.80;;;23.10;99.90;;;;;;5040207;28;20480;-72
2022/07/25 00:17:12;;;;;;;3.35;1.70;;;23.10;99.90;;;;;;5040930;28;20128;-72
2022/07/25 00:19:38;;;;;;;;;;;23.10;99.90;;;;;;5039802;28;20186;-72
2022/07/25 00:22:04;;;;;;;2.63;1.73;;;23.10;99.90;;;;;;5031949;28;19932;-72
2022/07/25 00:24:29;;;;;;;;;;;23.10;99.90;;;;;;5037384;28;20072;-72
2022/07/25 00:26:55;;;;;;;3.50;1.60;;;23.10;99.90;;;;;;5032830;28;20340;-72
2022/07/25 00:29:21;;;;;;;;;;;23.10;99.90;;;;;;5022117;28;20049;-81
2022/07/25 00:31:46;;;;;;;2.72;1.58;;;23.10;99.90;;;;;;5038324;28;19920;-77
2022/07/25 00:34:12;;;;;;;;;;;23.00;99.90;;;;;;5036201;28;20461;-72
2022/07/25 00:36:37;;;;;;;2.45;1.58;;;23.00;99.90;;;;;;5042480;28;19917;-73
2022/07/25 00:39:04;;;;;;;;;;;23.00;99.90;;;;;;5039639;28;20037;-75
2022/07/25 00:41:30;;;;;;;3.75;1.50;;;23.00;99.90;;;;;;5044109;28;20027;-75
2022/07/25 00:43:55;;;;;;;;;;;23.00;99.90;;;;;;5048352;28;20068;-76
2022/07/25 00:46:21;;;;;;;3.45;1.80;;;23.00;99.90;;;;;;5046063;28;19932;-75
2022/07/25 00:48:47;;;;;;;;;;;22.90;99.90;;;;;;5046172;28;20076;-75
2022/07/25 00:51:14;;;;;;;3.67;1.83;;;22.90;99.90;;;;;;5044760;28;20007;-75
2022/07/25 00:53:40;;;;;;;3.72;1.80;;;22.90;99.90;;;;;;5042184;28;20048;-73
2022/07/25 00:56:24;;;;;;;;;;;22.90;99.90;;;;;;5091520;22;20490;-86
2022/07/25 00:59:35;;;;;;;3.03;1.70;;;22.90;99.90;;;;;;4993980;28;20307;-85
2022/07/25 01:02:19;;;;;;;;;;;22.80;99.90;;;;;;5052839;28;20138;-85
2022/07/25 01:04:57;;;;;;;3.42;2.03;;;22.80;99.90;;;;;;5052910;28;19925;-86
2022/07/25 01:10:34;;;;;;;2.75;1.83;;;22.80;99.90;;;;;;5047815;28;20037;-84
2022/07/25 01:13:40;;;;;;;;;;;;;;;;;;;;;
2022/07/25 01:16:15;;;;;;;3.55;2.03;;;22.80;99.90;;;;;;5054960;22;20444;-73
2022/07/25 01:18:41;;;;;;;;;;;22.80;99.90;;;;;;5044228;28;20073;-73
2022/07/25 01:21:08;;;;;;;3.15;1.90;;;22.80;99.90;;;;;;5056951;28;20373;-73
2022/07/25 01:23:33;;;;;;;3.35;2.05;;;22.80;99.90;;;;;;5043449;28;20053;-73
2022/07/25 01:25:59;;;;;;;;;;;22.80;99.90;;;;;;5035821;28;20107;-73
2022/07/25 01:28:25;;;;;;;3.70;2.40;;;22.80;99.90;;;;;;5046005;28;19974;-73
2022/07/25 01:30:50;;;;;;;;;;;22.80;99.90;;;;;;5044622;28;20041;-73
2022/07/25 01:33:18;;;;;;;2.90;2.00;;;22.70;99.90;;;;;;5043260;28;19916;-73
2022/07/25 01:35:48;;;;;;;4.00;1.90;;;22.70;99.90;;;;;;5063688;28;20044;-73
2022/07/25 01:38:14;;;;;;;2.95;1.92;;;22.70;99.90;;;;;;5047003;28;20068;-73
2022/07/25 01:40:41;;;;;;;3.60;1.98;;;22.70;99.90;;;;;;5044832;28;20037;-73
2022/07/25 01:43:07;;;;;;;3.10;1.80;;;22.70;99.90;;;;;;5030084;28;20485;-73
2022/07/25 01:45:32;;;;;;;;;;;22.70;99.90;;;;;;5042695;28;20041;-73
2022/07/25 01:47:58;;;;;;;2.85;2.08;;;22.60;99.90;;;;;;5044206;28;19928;-73
2022/07/25 01:50:24;;;;;;;;;;;22.60;99.90;;;;;;5044821;28;20205;-73
2022/07/25 01:52:49;;;;;;;3.40;2.05;;;22.60;99.90;;;;;;5046076;28;19924;-73
2022/07/25 01:55:15;;;;;;;;;;;22.60;99.90;;;;;;5044558;28;20065;-73
2022/07/25 01:57:42;;;;;;;5.22;2.00;;;22.60;99.90;;;;;;5034171;28;19917;-73
2022/07/25 02:00:13;;;;;;;3.83;2.47;;;22.50;99.90;;;;;;5039634;28;20033;-73
2022/07/25 02:02:44;;;;;;;3.67;2.05;;;22.50;99.90;;;;;;5039343;28;20045;-73
2022/07/25 02:05:14;;;;;;;3.72;1.80;;;22.50;99.90;;;;;;5033949;28;20033;-73
2022/07/25 02:07:43;;;;;;;7.68;2.28;;;22.40;99.90;;;;;;5023461;28;20072;-74
2022/07/25 02:10:12;;;;;;;3.97;2.35;;;22.40;99.90;;;;;;5040530;28;20110;-73
2022/07/25 02:12:38;;;;;;;3.58;2.00;;;22.40;99.90;;;;;;5031213;28;20048;-73
2022/07/25 02:15:04;;;;;;;;;;;22.30;99.90;;;;;;5033591;28;20029;-72
2022/07/25 02:17:29;;;;;;;4.03;2.20;;;22.30;99.90;;;;;;5040092;28;20435;-73
2022/07/25 02:19:55;;;;;;;;;;;22.20;99.90;;;;;;5040658;28;20573;-73
2022/07/25 02:22:21;;;;;;;3.25;2.20;;;22.20;99.90;;;;;;5040737;28;19932;-73
2022/07/25 02:24:46;;;;;;;;;;;22.20;99.90;;;;;;5034477;28;20517;-73
2022/07/25 02:27:12;;;;;;;4.28;1.73;;;22.10;99.90;;;;;;5036610;28;19920;-73
2022/07/25 02:29:41;;;;;;;;;;;22.10;99.90;;;;;;5017709;28;20055;-73
2022/07/25 02:32:12;;;;;;;4.00;2.20;;;22.10;99.90;;;;;;5046248;28;19970;-73
2022/07/25 02:34:41;;;;;;;4.57;2.80;;;22.10;99.90;;;;;;5031339;28;20073;-73
2022/07/25 02:37:07;;;;;;;2.88;2.05;;;22.10;99.90;;;;;;5024295;28;20035;-73
2022/07/25 02:39:33;;;;;;;;;;;22.10;99.90;;;;;;5034287;28;20131;-73
2022/07/25 02:41:59;;;;;;;5.18;2.17;;;22.00;99.90;;;;;;5039449;28;20414;-73
2022/07/25 02:44:25;;;;;;;3.55;2.28;;;22.10;99.90;;;;;;5034918;28;20063;-72
2022/07/25 02:46:50;;;;;;;;;;;22.00;99.90;;;;;;5038041;28;20033;-72
2022/07/25 02:49:16;;;;;;;3.50;1.98;;;22.00;99.90;;;;;;5038386;28;19986;-72
2022/07/25 02:51:42;;;;;;;3.35;2.42;;;22.00;99.90;;;;;;5035270;28;20075;-72
2022/07/25 02:54:07;;;;;;;;;;;22.00;99.90;;;;;;5035317;28;20036;-73
2022/07/25 02:56:33;;;;;;;4.07;2.58;;;22.00;99.90;;;;;;5033864;28;20023;-73
2022/07/25 02:58:59;;;;;;;;;;;21.90;99.90;;;;;;5031927;28;20090;-72
2022/07/25 03:01:25;;;;;;;3.00;1.80;;;21.90;99.90;;;;;;5032791;28;19924;-72
2022/07/25 03:03:51;;;;;;;4.13;2.50;;;21.90;99.90;;;;;;5043950;28;20047;-72
2022/07/25 03:06:17;;;;;;;;;;;21.90;99.90;;;;;;5029577;28;20033;-72
2022/07/25 03:08:42;;;;;;;5.88;2.35;;;21.90;99.90;;;;;;5018513;28;19928;-72
2022/07/25 03:11:08;;;;;;;;;;;21.90;99.90;;;;;;5031946;28;20091;-72
2022/07/25 03:13:33;;;;;;;4.70;2.35;;;21.80;99.90;;;;;;5036178;28;20451;-72
2022/07/25 03:16:02;;;;;;;;;;;21.80;99.90;;;;;;5033589;28;20090;-72
2022/07/25 03:18:27;;;;;;;3.63;2.50;;;21.80;99.90;;;;;;5045718;28;19916;-72
2022/07/25 03:20:53;;;;;;;;;;;21.70;99.90;;;;;;5033791;28;21007;-72
2022/07/25 03:23:18;;;;;;;4.18;2.30;;;21.70;99.90;;;;;;5032092;28;19925;-73
2022/07/25 03:25:47;;;;;;;;;;;21.70;99.90;;;;;;5040277;28;20060;-72
2022/07/25 03:28:12;;;;;;;3.53;2.28;;;21.70;99.90;;;;;;5027737;28;20289;-73
2022/07/25 03:30:39;;;;;;;;;;;21.60;99.90;;;;;;5050096;28;20037;-73
2022/07/25 03:33:08;;;;;;;3.40;2.53;;;21.70;99.90;;;;;;5038174;28;19917;-73
2022/07/25 03:35:33;;;;;;;;;;;21.60;99.90;;;;;;5042699;28;20044;-73
2022/07/25 03:37:59;;;;;;;3.58;2.55;;;21.60;99.90;;;;;;5041032;28;19917;-73
2022/07/25 03:40:24;;;;;;;;;;;21.60;99.90;;;;;;5038895;28;20044;-73
2022/07/25 03:42:50;;;;;;;3.90;2.65;;;21.60;99.90;;;;;;5043886;28;19921;-72
2022/07/25 03:45:16;;;;;;;;;;;21.50;99.90;;;;;;5043098;28;20394;-73
2022/07/25 03:47:42;;;;;;;4.47;2.85;;;21.50;99.90;;;;;;5039246;28;19920;-73
2022/07/25 03:50:08;;;;;;;;;;;21.50;99.90;;;;;;5043282;28;20052;-73
2022/07/25 03:52:33;;;;;;;6.88;3.22;;;21.40;99.90;;;;;;5040383;28;20007;-73
2022/07/25 03:54:59;;;;;;;;;;;21.50;99.90;;;;;;5043872;28;20033;-72
2022/07/25 03:57:24;;;;;;;4.53;3.38;;;21.40;99.90;;;;;;5044058;28;20646;-73
2022/07/25 03:59:50;;;;;;;5.22;3.50;;;21.40;99.90;;;;;;5035332;28;20145;-73
2022/07/25 04:02:16;;;;;;;4.90;2.88;;;21.40;99.90;;;;;;5038287;28;20355;-73
2022/07/25 04:04:42;;;;;;;4.93;3.20;;;21.40;99.90;;;;;;5042436;28;20040;-73
2022/07/25 04:07:08;;;;;;;5.47;3.15;;;21.40;99.90;;;;;;5025213;28;20562;-73
2022/07/25 04:09:33;;;;;;;;;;;21.40;99.90;;;;;;5042464;28;20152;-73
2022/07/25 04:11:59;;;;;;;6.05;3.35;;;21.40;99.90;;;;;;5041267;28;20280;-73
2022/07/25 04:14:25;;;;;;;;;;;21.40;99.90;;;;;;5036163;28;20129;-73
2022/07/25 04:16:50;;;;;;;4.15;3.20;;;21.40;99.90;;;;;;5033744;28;19925;-73
2022/07/25 04:19:16;;;;;;;5.03;3.25;;;21.40;99.90;;;;;;5035692;28;20127;-73
2022/07/25 04:21:42;;;;;;;4.57;3.22;;;21.40;99.90;;;;;;5048907;28;20075;-73
2022/07/25 04:24:07;;;;;;;5.38;3.20;;;21.40;99.90;;;;;;5035501;28;20302;-73
2022/07/25 04:26:33;;;;;;;5.93;3.63;;;21.30;99.90;;;;;;5036932;28;20400;-72
2022/07/25 04:29:02;;;;;;;;;;;21.40;99.90;;;;;;5036720;28;20041;-73
2022/07/25 04:31:28;;;;;;;6.07;3.60;;;21.40;99.90;;;;;;5034720;28;20942;-73
2022/07/25 04:33:53;;;;;;;;;;;21.40;99.90;;;;;;5052036;28;20037;-73
2022/07/25 04:36:22;;;;;;;6.28;3.53;;;21.40;99.90;;;;;;5041483;28;20130;-73
2022/07/25 04:38:48;;;;;;;3.70;2.63;;;21.40;99.90;;;;;;5035050;28;21296;-73
2022/07/25 04:41:13;;;;;;;;;;;21.40;99.90;;;;;;5041255;28;20522;-73
2022/07/25 04:43:42;;;;;;;4.30;3.13;;;21.40;99.90;;;;;;5035841;28;19916;-72
2022/07/25 04:46:11;;;;;;;5.93;3.55;;;21.40;99.90;;;;;;5039376;28;20495;-73
2022/07/25 04:48:37;;;;;;;4.72;3.40;;;21.50;99.90;;;;;;5044820;28;20107;-73
2022/07/25 04:51:02;;;;;;;;;;;21.50;99.90;;;;;;5046892;28;20041;-73
2022/07/25 04:53:30;;;;;;;4.88;3.25;;;21.50;99.90;;;;;;5042121;28;19956;-73
2022/07/25 04:55:56;;;;;;;5.45;3.38;;;21.50;99.90;;;;;;5035564;28;20067;-73
2022/07/25 04:58:24;;;;;;;;;;;21.50;99.90;;;;;;5035611;28;20413;-73
2022/07/25 05:00:50;;;;;;;6.32;3.90;;;21.50;99.90;;;;;;5041909;28;20258;-73
2022/07/25 05:03:16;;;;;;;;;;;21.50;99.90;;;;;;5034865;28;20159;-73
2022/07/25 05:05:45;;;;;;;7.60;3.53;;;21.50;99.90;;;;;;5033449;28;20163;-73
2022/07/25 05:08:11;;;;;;;5.53;3.50;;;21.50;99.90;;;;;;5052658;28;20414;-73
2022/07/25 05:10:37;;;;;;;6.97;3.95;;;21.50;99.90;;;;;;5038509;28;20079;-73
2022/07/25 05:13:03;;;;;;;;;;;21.60;99.90;;;;;;5048285;28;20470;-73
2022/07/25 05:15:28;;;;;;;5.50;3.47;;;21.60;99.90;;;;;;5036016;28;20003;-73
2022/07/25 05:17:54;;;;;;;5.43;3.53;;;21.60;99.90;;;;;;5033898;28;20049;-73
2022/07/25 05:20:20;;;;;;;4.90;3.58;;;21.50;99.90;;;;;;5033165;28;20045;-73
2022/07/25 05:22:45;;;;;;;;;;;21.60;99.90;;;;;;5021038;28;20029;-73
2022/07/25 05:25:11;;;;;;;4.38;3.35;;;21.60;99.90;;;;;;5033723;28;19927;-74
2022/07/25 05:27:41;;;;;;;5.93;3.85;;;21.60;99.90;;;;;;5040056;28;20094;-73
2022/07/25 05:30:09;;;;;;;7.07;3.72;;;21.60;99.90;;;;;;5041418;28;20041;-73
2022/07/25 05:32:34;;;;;;;5.75;4.05;;;21.60;99.90;;;;;;5034232;28;20041;-71
2022/07/25 05:35:00;;;;;;;;;;;21.60;99.90;;;;;;5026418;28;20040;-71
2022/07/25 05:37:25;;;;;;;5.72;3.83;;;21.70;99.90;;;;;;5027882;28;20015;-72
2022/07/25 05:39:51;;;;;;;6.35;3.88;;;21.70;99.90;;;;;;5045287;28;20036;-71
2022/07/25 05:42:17;;;;;;;;;;;21.70;99.90;;;;;;5044689;28;20148;-71
2022/07/25 05:44:42;;;;;;;6.70;4.43;;;21.70;99.90;;;;;;5029684;28;19924;-71
2022/07/25 05:47:09;;;;;;;;;;;21.70;99.90;;;;;;5025671;28;20437;-71
2022/07/25 05:49:35;;;;;;;5.75;4.07;;;21.80;99.90;;;;;;5039182;28;19964;-71
2022/07/25 05:52:04;;;;;;;;;;;21.80;99.90;;;;;;5046302;28;20091;-71
2022/07/25 05:54:30;;;;;;;5.18;3.67;;;21.80;99.90;;;;;;5044047;28;20036;-73
2022/07/25 05:56:55;;;;;;;;;;;21.80;99.90;;;;;;5057855;28;20116;-73
2022/07/25 05:59:21;;;;;;;6.53;4.20;;;21.90;99.90;;;;;;5043599;28;19924;-72
2022/07/25 06:01:46;;;;;;;;;;;21.90;99.90;;;;;;5047754;28;20048;-74
2022/07/25 06:04:12;;;;;;;7.68;3.97;;;21.90;99.90;;;;;;5042374;28;19921;-72
2022/07/25 06:06:37;;;;;;;;;;;22.00;99.90;;;;;;5035676;28;20056;-73
2022/07/25 06:09:03;;;;;;;7.68;3.95;;;22.00;99.90;;;;;;5044255;28;19977;-72
2022/07/25 06:11:30;;;;;;;;;;;22.00;99.90;;;;;;5043321;28;20362;-76
2022/07/25 06:13:56;;;;;;;7.80;4.33;;;22.00;99.90;;;;;;5040385;28;19917;-75
2022/07/25 06:16:22;;;;;;;7.88;4.65;;;22.00;99.90;;;;;;5042537;28;20123;-71
2022/07/25 06:18:48;;;;;;;6.80;4.90;;;22.10;99.90;;;;;;5034259;28;21609;-72
2022/07/25 06:21:13;;;;;;;;;;;22.10;99.90;;;;;;5042319;28;20063;-71
2022/07/25 06:23:42;;;;;;;7.30;4.43;;;22.10;99.90;;;;;;5032211;28;19921;-71
2022/07/25 06:26:12;;;;;;;7.20;4.20;;;22.10;99.90;;;;;;5040593;28;20430;-71
2022/07/25 06:28:37;;;;;;;10.02;4.90;;;22.10;99.90;;;;;;5034456;28;20037;-71
2022/07/25 06:31:03;;;;;;;;;;;22.10;99.90;;;;;;5037168;28;20040;-71
2022/07/25 06:33:28;;;;;;;9.15;4.60;;;22.20;99.90;;;;;;5038445;28;19924;-71
2022/07/25 06:35:54;;;;;;;;;;;22.20;99.90;;;;;;5041961;28;20039;-71
2022/07/25 06:38:19;;;;;;;8.05;5.63;;;22.20;99.90;;;;;;5032603;28;20007;-72
2022/07/25 06:40:45;;;;;;;;;;;22.30;99.90;;;;;;5035050;28;20120;-71
2022/07/25 06:43:11;;;;;;;7.10;4.70;;;22.30;99.90;;;;;;5044118;28;20331;-72
2022/07/25 06:45:37;;;;;;;8.85;4.90;;;22.40;99.90;;;;;;5046100;28;20075;-72
2022/07/25 06:48:03;;;;;;;;;;;22.40;99.90;;;;;;5055876;28;20445;-71
2022/07/25 06:50:28;;;;;;;9.63;5.13;;;22.50;99.90;;;;;;5042416;28;19921;-71
2022/07/25 06:52:54;;;;;;;;;;;22.50;99.90;;;;;;5043719;28;20045;-71
2022/07/25 06:56:04;;;;;;;9.70;4.88;;;22.60;99.90;;;;;;5050602;22;20311;-84
2022/07/25 06:59:40;;;;;;;8.23;5.35;;;22.70;99.90;;;;;;5034421;28;20047;-84
2022/07/25 07:02:38;;;;;;;9.35;5.10;;;22.80;99.90;;;;;;5036572;28;20388;-84
2022/07/25 07:05:16;;;;;;;8.02;4.85;;;22.80;99.90;;;;;;5055105;28;20037;-85
2022/07/25 07:08:45;;;;;;;8.02;5.10;;;22.90;99.90;;;;;;5040200;28;20041;-85
2022/07/25 07:11:13;;;;;;;7.70;4.90;;;23.00;99.90;;;;;;5046883;28;20041;-84
2022/07/25 07:17:55;;;;;;;6.70;4.75;;;23.20;99.90;;;;;;4947547;28;20038;-84
2022/07/25 07:21:22;;;;;;;6.70;4.32;;;23.30;99.90;;;;;;4949286;28;20130;-84
2022/07/25 07:24:36;;;;;;;6.28;3.97;;;23.30;99.90;;;;;;4956063;28;20038;-84
2022/07/25 07:27:11;;;;;;;5.82;3.20;;;23.40;99.90;;;;;;5019862;28;20049;-84
2022/07/25 07:29:59;;;;;;;5.00;3.17;;;23.40;99.90;;;;;;5060368;28;20041;-85
2022/07/25 07:32:33;;;;;;;7.03;3.28;;;23.40;99.90;;;;;;5053306;28;20037;-84
2022/07/25 07:35:06;;;;;;;7.38;4.18;;;23.40;99.90;;;;;;5054059;28;20399;-84
2022/07/25 07:38:08;;;;;;;;;;;;;;;;;;;;;
2022/07/25 07:41:59;;;;;;;6.82;3.30;;;23.60;99.90;;;;;;5052690;28;20136;-84
2022/07/25 07:44:32;;;;;;;4.80;2.60;;;23.70;99.90;;;;;;4958001;28;20114;-85
2022/07/25 07:47:48;;;;;;;;;;;;;;;;;;;;;
2022/07/25 07:51:02;;;;;;;4.28;2.50;;;23.50;99.90;;;;;;5049649;28;20377;-85
2022/07/25 07:57:13;;;;;;;3.83;2.13;;;23.50;99.90;;;;;;5051579;28;20049;-84
2022/07/25 07:59:56;;;;;;;3.95;1.52;;;23.60;99.90;;;;;;5033201;28;20107;-84
2022/07/25 08:02:54;;;;;;;4.05;2.00;;;23.60;99.90;;;;;;5050531;28;20047;-85
2022/07/25 08:05:46;;;;;;;2.63;1.52;;;23.60;99.90;;;;;;5049546;28;20144;-85
2022/07/25 08:08:33;;;;;;;2.78;1.48;;;23.50;99.90;;;;;;5043355;28;20507;-85
2022/07/25 08:11:25;;;;;;;1.92;1.13;;;23.50;99.90;;;;;;5052509;28;20044;-82
2022/07/25 08:14:13;;;;;;;2.20;1.20;;;23.40;99.90;;;;;;5028320;28;20459;-85
2022/07/25 08:17:23;;;;;;;1.90;0.95;;;23.30;99.90;;;;;;5049489;28;20056;-86
2022/07/25 08:21:09;;;;;;;5.78;1.38;;;23.20;99.90;;;;;;5004661;28;20803;-85
2022/07/25 08:23:58;;;;;;;2.28;1.15;;;23.10;99.90;;;;;;5028934;28;20504;-85
2022/07/25 08:29:47;;;;;;;3.17;1.08;;;22.80;99.90;;;;;;5044547;28;20530;-85
2022/07/25 08:33:09;;;;;;;10.77;2.53;;;22.60;99.90;;;;;;5047761;28;21600;-84
2022/07/25 08:36:12;;;;;;;2.28;1.48;;;22.50;99.90;;;;;;5042916;28;20048;-82
2022/07/25 08:41:57;;;;;;;3.10;1.30;;;22.50;99.90;;;;;;5032418;28;20042;-85
2022/07/25 08:44:39;;;;;;;2.70;1.08;;;22.60;99.90;;;;;;5034844;28;20062;-86
2022/07/25 08:47:14;;;;;;;2.83;1.40;;;22.60;99.90;;;;;;5042417;28;20056;-84
2022/07/25 08:54:55;;;;;;;;;;;;;;;;;;;;;
2022/07/25 08:58:16;;;;;;;2.08;1.25;;;22.60;99.90;;;;;;4968320;28;20133;-85
2022/07/25 09:07:03;;;;;;;2.45;1.27;;;22.60;99.90;;;;;;5024641;22;20053;-69
2022/07/25 09:09:37;;;;;;;2.22;0.98;;;22.60;99.90;;;;;;4998560;28;20061;-69
2022/07/25 09:12:05;;;;;;;3.03;1.30;;;22.60;99.90;;;;;;4994949;28;20041;-69
2022/07/25 09:14:39;;;;;;;2.38;1.10;;;22.60;99.90;;;;;;4999658;28;20045;-69
2022/07/25 09:17:06;;;;;;;1.73;0.90;;;22.70;99.90;;;;;;5014667;28;20401;-69
2022/07/25 09:19:32;;;;;;;2.08;1.20;;;22.70;99.90;;;;;;5002866;28;20503;-69
2022/07/25 09:21:57;;;;;;;;;;;22.70;99.90;;;;;;5010991;28;20072;-69
2022/07/25 09:24:23;;;;;;;2.85;1.30;;;22.70;99.90;;;;;;5005673;28;19922;-69
2022/07/25 09:26:49;;;;;;;;;;;22.70;99.90;;;;;;5004752;28;20080;-69
2022/07/25 09:29:24;;;;;;;2.08;1.23;;;22.70;99.90;;;;;;4990048;28;20458;-69
2022/07/25 09:31:52;;;;;;;2.25;1.27;;;22.80;99.90;;;;;;5002759;28;20593;-69
2022/07/25 09:34:42;;;;;;;2.38;1.30;;;22.80;99.90;;;;;;4996378;28;20042;-69
2022/07/25 09:37:13;;;;;;;2.17;1.30;;;22.80;99.90;;;;;;4995986;28;20499;-69
2022/07/25 09:39:48;;;;;;;1.65;1.17;;;22.70;99.90;;;;;;5002744;28;20061;-70
2022/07/25 09:42:26;;;;;;;3.45;1.30;;;22.60;99.90;;;;;;4996709;28;20454;-70
2022/07/25 09:45:06;;;;;;;3.08;1.30;;;22.50;99.90;;;;;;4989483;28;20053;-69
2022/07/25 09:47:34;;;;;;;2.15;1.33;;;22.50;99.90;;;;;;4999847;28;20047;-70
2022/07/25 09:50:00;;;;;;;2.90;1.60;;;22.40;99.90;;;;;;4998160;28;20096;-70
2022/07/25 09:52:25;;;;;;;;;;;22.40;99.90;;;;;;4997016;28;20038;-70
2022/07/25 09:54:51;;;;;;;2.55;1.02;;;22.30;99.90;;;;;;5007998;28;19917;-69
2022/07/25 09:57:17;;;;;;;;;;;22.30;99.90;;;;;;4996748;28;20029;-70
2022/07/25 09:59:43;;;;;;;3.67;1.38;;;22.30;99.90;;;;;;4997940;28;19929;-69
2022/07/25 10:02:30;;;;;;;2.72;1.30;;;22.30;99.90;;;;;;4995623;28;20046;-69
2022/07/25 10:05:13;;;;;;;5.28;1.60;;;22.40;99.90;;;;;;4995770;28;20042;-70
2022/07/25 10:07:44;;;;;;;5.45;1.30;;;22.50;99.90;;;;;;4997793;28;20510;-69
2022/07/25 10:10:20;;;;;;;5.05;1.30;;;22.50;99.90;;;;;;5004877;28;20136;-69
2022/07/25 10:12:57;;;;;;;;;;;22.50;99.90;;;;;;5000797;28;21045;-69
2022/07/25 10:15:23;;;;;;;6.53;1.42;;;22.40;99.90;;;;;;4976070;28;20000;-69
2022/07/25 10:18:00;;;;;;;;;;;22.50;99.90;;;;;;4996712;28;20112;-68
2022/07/25 10:20:27;;;;;;;2.88;1.40;;;22.40;99.90;;;;;;5000878;28;19936;-68
2022/07/25 10:22:52;;;;;;;5.85;1.40;;;22.60;99.90;;;;;;5003286;28;20073;-68
2022/07/25 10:25:18;;;;;;;;;;;22.60;99.90;;;;;;5004076;28;20089;-69
2022/07/25 10:27:51;;;;;;;5.13;1.33;;;22.70;99.90;;;;;;4985540;28;19932;-69
2022/07/25 10:30:32;;;;;;;5.53;1.63;;;22.70;99.90;;;;;;4988861;28;20030;-68
2022/07/25 10:33:03;;;;;;;4.97;1.15;;;22.90;99.90;;;;;;5003053;28;20042;-69
2022/07/25 10:35:33;;;;;;;3.90;1.48;;;23.00;99.90;;;;;;4998617;28;20041;-69
2022/07/25 10:38:02;;;;;;;2.95;1.30;;;23.00;99.90;;;;;;4994002;28;20042;-70
2022/07/25 10:40:42;;;;;;;6.93;1.35;;;23.10;99.90;;;;;;5007588;28;20029;-69
2022/07/25 10:43:18;;;;;;;4.30;1.55;;;23.20;99.90;;;;;;5002026;28;20057;-69
2022/07/25 10:46:05;;;;;;;4.70;1.25;;;23.20;99.90;;;;;;4978677;28;20046;-69
2022/07/25 10:48:31;;;;;;;3.85;1.40;;;23.20;99.90;;;;;;4976979;28;20482;-69
2022/07/25 10:51:09;;;;;;;3.22;1.30;;;23.20;99.90;;;;;;4976294;28;20038;-69
2022/07/25 10:53:39;;;;;;;2.70;1.35;;;23.20;99.90;;;;;;5003873;28;20305;-69
2022/07/25 10:56:26;;;;;;;2.08;1.13;;;23.20;99.90;;;;;;4991585;28;20537;-69
2022/07/25 10:58:53;;;;;;;3.50;1.33;;;23.20;99.90;;;;;;4995691;28;20045;-69
2022/07/25 11:01:27;;;;;;;5.57;1.65;;;23.10;99.90;;;;;;4991801;28;20041;-68
2022/07/25 11:03:55;;;;;;;5.28;1.20;;;23.00;99.90;;;;;;4997226;28;20391;-69
2022/07/25 11:06:33;;;;;;;4.03;1.42;;;23.00;99.90;;;;;;4998216;28;20908;-69
2022/07/25 11:09:00;;;;;;;3.85;1.30;;;22.80;99.90;;;;;;4999041;28;20074;-69
2022/07/25 11:11:54;;;;;;;3.80;1.85;;;22.80;99.90;;;;;;4991097;28;20097;-69
2022/07/25 11:14:23;;;;;;;3.00;1.42;;;22.80;99.90;;;;;;5004495;28;20526;-68
2022/07/25 11:16:51;;;;;;;3.85;1.02;;;22.70;99.90;;;;;;4996348;28;20100;-68
2022/07/25 11:19:27;;;;;;;3.10;1.20;;;22.70;99.90;;;;;;4993633;28;20065;-68
2022/07/25 11:21:58;;;;;;;2.72;1.00;;;22.70;99.90;;;;;;4991857;28;20061;-69
2022/07/25 11:24:41;;;;;;;2.45;1.08;;;22.80;99.90;;;;;;4996503;28;20038;-69
2022/07/25 11:27:08;;;;;;;2.58;1.27;;;22.80;99.90;;;;;;4992814;28;20043;-70
2022/07/25 11:29:36;;;;;;;6.30;1.13;;;22.90;99.90;;;;;;4989161;28;20046;-69
2022/07/25 11:32:09;;;;;;;3.63;1.13;;;23.00;99.90;;;;;;4989975;28;20038;-69
2022/07/25 11:34:37;;;;;;;3.53;1.08;;;23.00;99.90;;;;;;4983369;28;20038;-69
2022/07/25 11:37:05;;;;;;;5.47;1.08;;;23.00;99.90;;;;;;4995811;28;20560;-70
2022/07/25 11:39:33;;;;;;;7.60;1.20;;;23.10;99.90;;;;;;4996254;28;20508;-69
2022/07/25 11:42:03;;;;;;;3.45;1.58;;;23.10;99.90;;;;;;5009477;28;20372;-69
2022/07/25 11:44:50;;;;;;;2.10;1.02;;;23.10;99.90;;;;;;5001904;28;20465;-69
2022/07/25 11:47:22;;;;;;;5.72;1.33;;;23.10;99.90;;;;;;5005243;28;20588;-70
2022/07/25 11:49:49;;;;;;;4.15;1.17;;;23.10;99.90;;;;;;4997589;28;20096;-69
2022/07/25 11:52:20;;;;;;;3.78;1.27;;;23.10;99.90;;;;;;4997043;28;20053;-69
2022/07/25 11:55:01;;;;;;;2.58;0.95;;;23.10;99.90;;;;;;5001293;28;20046;-69
2022/07/25 11:57:32;;;;;;;4.63;1.30;;;23.10;99.90;;;;;;4994240;28;20042;-69
2022/07/25 11:59:59;;;;;;;6.32;1.10;;;23.00;99.90;;;;;;5001510;28;20037;-70
2022/07/25 12:02:33;;;;;;;4.20;1.30;;;23.00;99.90;;;;;;4997174;28;20045;-69
2022/07/25 12:05:02;;;;;;;4.55;1.40;;;23.00;99.90;;;;;;4996737;28;20072;-69
2022/07/25 12:07:43;;;;;;;3.20;1.33;;;23.20;99.90;;;;;;5011002;28;20490;-69
2022/07/25 12:10:22;;;;;;;4.38;1.30;;;23.30;99.90;;;;;;4994090;28;20042;-69
2022/07/25 12:12:55;;;;;;;2.47;1.00;;;23.30;99.90;;;;;;4998110;28;20117;-69
2022/07/25 12:15:29;;;;;;;8.05;1.48;;;23.30;99.90;;;;;;5006301;28;20040;-69
2022/07/25 12:17:56;;;;;;;4.63;1.40;;;23.30;99.90;;;;;;5003508;28;20266;-69
2022/07/25 12:20:27;;;;;;;3.35;0.77;;;23.30;99.90;;;;;;4995784;28;20041;-69
2022/07/25 12:22:55;;;;;;;4.07;1.20;;;23.40;99.90;;;;;;5002525;28;20041;-69
2022/07/25 12:25:22;;;;;;;2.72;1.20;;;23.50;99.90;;;;;;5000320;28;20296;-69
2022/07/25 12:27:49;;;;;;;3.63;1.35;;;23.60;99.90;;;;;;4999632;28;20042;-69
2022/07/25 12:30:15;;;;;;;3.45;0.95;;;23.60;99.90;;;;;;4990137;28;20407;-68
2022/07/25 12:32:41;;;;;;;6.13;1.10;;;23.50;99.90;;;;;;4997753;28;20041;-69
2022/07/25 12:35:09;;;;;;;4.63;1.52;;;23.50;99.90;;;;;;4994486;28;20046;-68
2022/07/25 12:37:35;;;;;;;1.42;0.82;;;23.40;99.90;;;;;;5002541;28;20038;-69
2022/07/25 12:40:00;;;;;;;;;;;23.30;99.90;;;;;;5005784;28;20064;-68
2022/07/25 12:42:29;;;;;;;3.85;1.20;;;23.20;99.90;;;;;;5001858;28;20374;-68
2022/07/25 12:44:55;;;;;;;5.80;1.42;;;23.10;99.90;;;;;;5003539;28;20034;-68
2022/07/25 12:47:24;;;;;;;;;;;23.10;99.90;;;;;;5002576;28;20518;-69
2022/07/25 12:49:50;;;;;;;2.83;1.13;;;23.10;99.90;;;;;;5002550;28;19921;-68
2022/07/25 12:52:16;;;;;;;3.50;1.35;;;23.00;99.90;;;;;;5008495;28;20058;-69
2022/07/25 12:54:41;;;;;;;;;;;23.10;99.90;;;;;;5004842;28;20038;-70
2022/07/25 12:57:08;;;;;;;3.63;1.20;;;23.40;99.90;;;;;;5047353;23;19921;-69
2022/07/25 12:59:34;;;;;;;4.47;1.80;;;23.50;99.90;;;;;;5025606;28;20227;-69
2022/07/25 13:01:59;;;;;;;;;;;23.70;99.90;;;;;;5042188;28;20508;-69
2022/07/25 13:04:25;;;;;;;4.28;1.23;;;23.70;99.90;;;;;;5043543;28;19981;-69
2022/07/25 13:06:51;;;;;;;;;;;23.50;99.90;;;;;;5036495;28;20041;-69
2022/07/25 13:09:17;;;;;;;7.43;1.60;;;23.40;99.90;;;;;;5043959;28;20840;-69
2022/07/25 13:11:42;;;;;;;;;;;23.30;99.90;;;;;;5042332;28;20075;-69
2022/07/25 13:14:08;;;;;;;6.05;1.80;;;23.30;99.90;;;;;;5039308;28;20123;-69
2022/07/25 13:16:36;;;;;;;;;;;23.30;99.90;;;;;;5039626;28;20067;-70
2022/07/25 13:19:03;;;;;;;4.05;1.17;;;23.40;99.90;;;;;;5047876;28;19953;-70
2022/07/25 13:21:31;;;;;;;4.13;1.27;;;23.40;99.90;;;;;;5042836;28;20370;-69
2022/07/25 13:23:57;;;;;;;6.00;1.52;;;23.40;99.90;;;;;;5045279;28;20032;-69
2022/07/25 13:26:23;;;;;;;;;;;23.30;99.90;;;;;;5046043;28;20044;-69
2022/07/25 13:28:50;;;;;;;3.88;1.30;;;23.30;99.90;;;;;;5038374;28;19928;-69
2022/07/25 13:31:17;;;;;;;6.05;2.08;;;23.30;99.90;;;;;;5037208;28;20072;-69
2022/07/25 13:33:43;;;;;;;3.83;1.30;;;23.30;99.90;;;;;;5037847;28;20485;-70
2022/07/25 13:36:08;;;;;;;;;;;23.50;99.90;;;;;;5039491;28;20036;-69
2022/07/25 13:38:34;;;;;;;4.07;1.02;;;23.60;99.90;;;;;;5047123;28;19940;-70
2022/07/25 13:41:01;;;;;;;5.85;1.40;;;23.70;99.90;;;;;;5044411;28;20052;-69
2022/07/25 13:43:27;;;;;;;6.82;1.48;;;23.60;99.90;;;;;;5035656;28;20051;-70
2022/07/25 13:45:52;;;;;;;;;;;23.60;99.90;;;;;;5041446;28;20042;-70
2022/07/25 13:48:18;;;;;;;3.83;1.75;;;23.50;99.90;;;;;;5041604;28;19979;-69
2022/07/25 13:50:43;;;;;;;;;;;23.50;99.90;;;;;;5047552;28;20478;-70
2022/07/25 13:53:09;;;;;;;4.20;1.42;;;23.60;99.90;;;;;;5046073;28;19974;-69
2022/07/25 13:55:35;;;;;;;;;;;23.60;99.90;;;;;;5039113;28;20037;-69
2022/07/25 13:58:01;;;;;;;6.20;1.23;;;23.60;99.90;;;;;;5038586;28;20372;-71
2022/07/25 14:00:26;;;;;;;;;;;23.70;99.90;;;;;;5043800;28;20040;-70
2022/07/25 14:02:52;;;;;;;3.35;1.05;;;23.60;99.90;;;;;;5035076;28;20289;-70